»·PEaware :: N704YA KPDX-KOTH

N704YA :: KPDX-KOTH

FLIGHT INFORMATION

Flight Status: Arrived
Operator: Privately registered:
United States
More flights under this callsign
Pilot: Wayne R. (17783)
Aircraft: CESSNA 150 COMMUTER AEROBAT
(C150)
More flights by this aircraft type
Origin: KPDX Portland Intl
United States
Destination: KOTH North Bend Mun
United States
More flights between these airports :: More routes between these airports
Route:
File this flight plan on PilotEdge
Remarks:
Altitude:
(Current/Filed)
4,500ft
Speed:
(Current/Filed)
95kts
Departed: 11-Jul-20 02:50 PM
Arrived: 11-Jul-20 04:34 PM
Distance/Time
Traveled:
148nm/1:43
Distance/Time
To Go:
Arrived

Flight Plot

Page will automatically refresh every two minutes.


Map Options




Map Legend


Flown Route
Filed Route
Departure Airport
Arrival Airport
Navaid (VOR, NDB)
Fix

Horizontal Profiles

Position Reports

Time Latitude Longitude Heading Altitude Ground
Speed
11-Jul-20 14:37 45.587213 -122.582968 211 25ft 0kts
11-Jul-20 14:38 45.587213 -122.582968 211 25ft 0kts
11-Jul-20 14:39 45.587213 -122.582968 211 25ft 0kts
11-Jul-20 14:40 45.587213 -122.582968 211 25ft 0kts
11-Jul-20 14:41 45.587213 -122.582968 211 25ft 0kts
11-Jul-20 14:42 45.587213 -122.582968 211 25ft 0kts
11-Jul-20 14:43 45.587264 -122.582463 8 25ft 10kts
11-Jul-20 14:44 45.591206 -122.589628 307 31ft 26kts
11-Jul-20 14:45 45.593550 -122.595802 296 29ft 14kts
11-Jul-20 14:46 45.594370 -122.597384 13 30ft 0kts
11-Jul-20 14:47 45.594370 -122.597384 13 30ft 0kts
11-Jul-20 14:48 45.594504 -122.595119 111 31ft 28kts
11-Jul-20 14:49 45.584799 -122.570868 110 553ft 82kts
11-Jul-20 14:50 45.571791 -122.543198 148 1235ft 93kts
11-Jul-20 14:51 45.552551 -122.562336 237 1802ft 97kts
11-Jul-20 14:52 45.535597 -122.592886 229 2306ft 99kts
11-Jul-20 14:53 45.515711 -122.620582 229 2687ft 100kts
11-Jul-20 14:54 45.495323 -122.648213 229 2983ft 100kts
11-Jul-20 14:55 45.475272 -122.674312 228 3407ft 96kts
11-Jul-20 14:56 45.455359 -122.699349 229 3819ft 94kts
11-Jul-20 14:57 45.435265 -122.722846 226 4203ft 92kts
11-Jul-20 14:58 45.415156 -122.744258 220 4562ft 89kts
11-Jul-20 14:59 45.393835 -122.764133 220 4616ft 94kts
11-Jul-20 15:00 45.372651 -122.785203 220 4512ft 91kts
11-Jul-20 15:01 45.352272 -122.806593 220 4405ft 90kts
11-Jul-20 15:02 45.333754 -122.826925 220 4344ft 88kts
11-Jul-20 15:03 45.331698 -122.829226 220 4335ft 89kts
11-Jul-20 15:04 45.312336 -122.851188 217 4295ft 89kts
11-Jul-20 15:05 45.292242 -122.871693 217 4415ft 88kts
11-Jul-20 15:06 45.272276 -122.892132 217 4519ft 87kts
11-Jul-20 15:07 45.252268 -122.912566 217 4521ft 88kts
11-Jul-20 15:08 45.232150 -122.933062 217 4522ft 88kts
11-Jul-20 15:09 45.211263 -122.951599 211 4534ft 88kts
11-Jul-20 15:10 45.189507 -122.968307 211 4526ft 89kts
11-Jul-20 15:11 45.167883 -122.984903 212 4541ft 87kts
11-Jul-20 15:12 45.146150 -123.001527 211 4535ft 88kts
11-Jul-20 15:13 45.124347 -123.018307 211 4513ft 89kts
11-Jul-20 15:14 45.102589 -123.035039 211 4510ft 89kts
11-Jul-20 15:15 45.080707 -123.051524 212 4505ft 88kts
11-Jul-20 15:16 45.058612 -123.067721 212 4489ft 90kts
11-Jul-20 15:17 45.036354 -123.084217 213 4480ft 90kts
11-Jul-20 15:18 45.014329 -123.101456 214 4474ft 91kts
11-Jul-20 15:19 44.991843 -123.118460 211 4466ft 92kts
11-Jul-20 15:20 44.968479 -123.133831 211 4461ft 93kts
11-Jul-20 15:21 44.944921 -123.149359 211 4467ft 93kts
11-Jul-20 15:22 44.921530 -123.164901 211 4463ft 93kts
11-Jul-20 15:23 44.898027 -123.180425 211 4461ft 93kts
11-Jul-20 15:24 44.874512 -123.195826 211 4464ft 93kts
11-Jul-20 15:25 44.850849 -123.211208 210 4466ft 94kts
11-Jul-20 15:26 44.826900 -123.226718 210 4460ft 95kts
11-Jul-20 15:27 44.802747 -123.242206 211 4451ft 96kts
11-Jul-20 15:28 44.778203 -123.257837 211 4446ft 97kts
11-Jul-20 15:29 44.753475 -123.273565 211 4440ft 97kts
11-Jul-20 15:30 44.728664 -123.289351 211 4433ft 98kts
11-Jul-20 15:31 44.703696 -123.305030 212 4455ft 98kts
11-Jul-20 15:32 44.677508 -123.320361 212 4454ft 104kts
11-Jul-20 15:33 44.651573 -123.337833 215 4483ft 101kts
11-Jul-20 15:34 44.625904 -123.356166 216 4477ft 104kts
11-Jul-20 15:35 44.600303 -123.374709 216 4506ft 102kts
11-Jul-20 15:36 44.574999 -123.393196 217 4519ft 102kts
11-Jul-20 15:37 44.550118 -123.412639 219 4526ft 103kts
11-Jul-20 15:38 44.525276 -123.432231 219 4554ft 102kts
11-Jul-20 15:39 44.500445 -123.451911 219 4567ft 102kts
11-Jul-20 15:40 44.475655 -123.471560 220 4573ft 102kts
11-Jul-20 15:41 44.450780 -123.490913 219 4601ft 102kts
11-Jul-20 15:42 44.426014 -123.510547 219 4609ft 102kts
11-Jul-20 15:43 44.401357 -123.530236 219 4629ft 101kts
11-Jul-20 15:44 44.376662 -123.549978 219 4650ft 102kts
11-Jul-20 15:45 44.351897 -123.569601 219 4658ft 102kts
11-Jul-20 15:46 44.327217 -123.589357 219 4674ft 102kts
11-Jul-20 15:47 44.302835 -123.609195 219 4707ft 100kts
11-Jul-20 15:48 44.278109 -123.626294 211 4672ft 99kts
11-Jul-20 15:49 44.252934 -123.641368 211 4622ft 96kts
11-Jul-20 15:50 44.228425 -123.656622 210 4576ft 95kts
11-Jul-20 15:52 44.204566 -123.672292 211 4526ft 94kts
11-Jul-20 15:53 44.181142 -123.688331 211 4478ft 93kts
11-Jul-20 15:54 44.158069 -123.704664 211 4445ft 93kts
11-Jul-20 15:55 44.135168 -123.721149 211 4448ft 92kts
11-Jul-20 15:56 44.112214 -123.737630 212 4336ft 92kts
11-Jul-20 15:57 44.087036 -123.746831 192 4182ft 97kts
11-Jul-20 15:58 44.060266 -123.750399 192 4059ft 96kts
11-Jul-20 15:59 44.033583 -123.754103 192 3937ft 96kts
11-Jul-20 16:00 44.006958 -123.757885 191 3834ft 96kts
11-Jul-20 16:01 43.980268 -123.761663 192 3759ft 96kts
11-Jul-20 16:02 43.953386 -123.765294 191 3680ft 97kts
11-Jul-20 16:03 43.926327 -123.769086 191 3648ft 97kts
11-Jul-20 16:04 43.898992 -123.772538 192 3609ft 99kts
11-Jul-20 16:05 43.871263 -123.775480 191 3587ft 100kts
11-Jul-20 16:06 43.843337 -123.778597 191 3540ft 101kts
11-Jul-20 16:06 43.819682 -123.781241 191 3499ft 102kts
11-Jul-20 16:08 43.786926 -123.787759 198 3460ft 101kts
11-Jul-20 16:09 43.759225 -123.795927 198 3428ft 102kts
11-Jul-20 16:09 43.736001 -123.802836 200 3426ft 102kts
11-Jul-20 16:11 43.703317 -123.812067 199 3459ft 102kts
11-Jul-20 16:11 43.680041 -123.818621 199 3484ft 102kts
11-Jul-20 16:12 43.652060 -123.826480 199 3515ft 102kts
11-Jul-20 16:14 43.619462 -123.835471 199 3553ft 102kts
11-Jul-20 16:14 43.596596 -123.842441 201 3579ft 101kts
11-Jul-20 16:15 43.569120 -123.851277 201 3607ft 101kts
11-Jul-20 16:16 43.541775 -123.860096 202 3631ft 101kts
11-Jul-20 16:17 43.514309 -123.869003 201 3654ft 100kts
11-Jul-20 16:18 43.486956 -123.877939 202 3674ft 101kts
11-Jul-20 16:19 43.459663 -123.886839 202 3694ft 101kts
11-Jul-20 16:20 43.432340 -123.895771 202 3713ft 101kts
11-Jul-20 16:21 43.407936 -123.911217 239 3655ft 91kts
11-Jul-20 16:22 43.393903 -123.937948 240 3440ft 91kts
11-Jul-20 16:23 43.378953 -123.966396 240 3194ft 91kts
11-Jul-20 16:24 43.366945 -123.996608 249 2953ft 90kts
11-Jul-20 16:25 43.357917 -124.028488 256 2656ft 89kts
11-Jul-20 16:26 43.353866 -124.061508 283 2172ft 88kts
11-Jul-20 16:27 43.359569 -124.095060 284 1651ft 90kts
11-Jul-20 16:28 43.364989 -124.127695 284 1343ft 83kts
11-Jul-20 16:29 43.369868 -124.157504 284 1216ft 78kts
11-Jul-20 16:30 43.376336 -124.185867 290 1196ft 78kts
11-Jul-20 16:31 43.387600 -124.211199 297 911ft 77kts
11-Jul-20 16:32 43.399824 -124.228933 314 403ft 57kts
11-Jul-20 16:33 43.412541 -124.240351 327 15ft 21kts
11-Jul-20 16:34 43.415340 -124.243890 244 20ft 4kts
11-Jul-20 16:35 43.414799 -124.244930 5 23ft 0kts
11-Jul-20 16:36 43.414842 -124.244927 3 23ft 0kts
11-Jul-20 16:37 43.414877 -124.244924 3 23ft 0kts
11-Jul-20 16:38 43.414771 -124.244765 306 23ft 1kts
11-Jul-20 16:39 43.414761 -124.244748 316 23ft 0kts
11-Jul-20 16:40 43.414761 -124.244748 316 23ft 0kts
11-Jul-20 16:41 43.414761 -124.244748 316 23ft 0kts
11-Jul-20 16:42 43.414761 -124.244748 316 23ft 0kts
11-Jul-20 16:43 43.414761 -124.244748 316 23ft 0kts
11-Jul-20 16:44 43.414761 -124.244748 316 23ft 0kts
11-Jul-20 16:45 43.414761 -124.244748 316 23ft 0kts
11-Jul-20 16:46 43.414761 -124.244748 316 23ft 0kts
11-Jul-20 16:47 43.414761 -124.244748 316 23ft 0kts

Navigation Log

Ident Type
Flight plan parsing failed, navigation log unavailable